Terminal Aerodrome Forecast
Issued by NWS

Home | Current Version | Previous Version | Text Only | Print | Product List | Glossary On
Versions: 1 2 3 4 5 6 7 8 9 10 11 12 13 14 15 16 17 18 19 20 21
260
FTUS42 KTAE 020858 AAB
TAFECP
TAF AMD
KECP 020858Z 0209/0306 VRB03KT 3SM BR BKN002
     FM021400 18006KT P6SM BKN025
     FM021800 20011KT P6SM BKN050=

USA.gov is the U.S. government's official web portal to all federal, state and local government web resources and services.